createdAt,value
2022-11-16T00:01:12.043Z,56.82
2022-11-16T00:03:45.753Z,56.87
2022-11-16T00:06:18.821Z,56.94
2022-11-16T00:09:06.372Z,56.58
2022-11-16T00:11:39.664Z,56.79
2022-11-16T00:14:12.550Z,56.79
2022-11-16T00:16:45.356Z,56.67
2022-11-16T00:19:18.751Z,56.61
2022-11-16T00:21:52.038Z,56.60
2022-11-16T00:24:25.434Z,56.68
2022-11-16T00:26:58.871Z,56.78
2022-11-16T00:29:31.824Z,56.81
2022-11-16T00:32:05.105Z,56.83
2022-11-16T00:34:38.107Z,56.62
2022-11-16T00:37:10.665Z,56.47
2022-11-16T00:39:44.571Z,56.35
2022-11-16T00:42:17.464Z,56.49
2022-11-16T00:44:50.334Z,56.42
2022-11-16T00:47:23.981Z,56.30
2022-11-16T00:49:56.418Z,56.48
2022-11-16T00:52:28.918Z,56.59
2022-11-16T00:55:02.972Z,56.71
2022-11-16T00:57:36.315Z,56.74
2022-11-16T01:00:12.880Z,56.68
2022-11-16T01:02:46.179Z,56.59
2022-11-16T01:05:18.785Z,56.76
2022-11-16T01:07:55.675Z,56.67
2022-11-16T01:10:29.070Z,56.62
2022-11-16T01:13:02.519Z,56.69
2022-11-16T01:15:35.030Z,56.66
2022-11-16T01:18:07.851Z,56.67
2022-11-16T01:20:43.127Z,56.39
2022-11-16T01:23:16.585Z,56.32
2022-11-16T01:25:49.203Z,56.37
2022-11-16T01:28:21.443Z,56.60
2022-11-16T01:30:53.859Z,56.58
2022-11-16T01:33:27.243Z,56.65
2022-11-16T01:36:00.375Z,56.48
2022-11-16T01:38:33.840Z,56.60
2022-11-16T01:41:06.728Z,56.83
2022-11-16T01:43:56.501Z,56.67
2022-11-16T01:46:29.789Z,56.60
2022-11-16T01:49:06.704Z,56.67
2022-11-16T01:51:40.472Z,56.70
2022-11-16T01:54:16.902Z,56.79
2022-11-16T01:56:50.853Z,56.96
2022-11-16T01:59:24.127Z,57.07
2022-11-16T02:01:56.925Z,57.25
2022-11-16T02:04:30.293Z,57.21
2022-11-16T02:07:07.678Z,57.11
2022-11-16T02:09:59.069Z,57.06
2022-11-16T02:12:51.565Z,57.05
2022-11-16T02:15:28.355Z,57.16
2022-11-16T02:18:08.747Z,57.19
2022-11-16T02:21:01.382Z,57.26
2022-11-16T02:24:11.346Z,57.40
2022-11-16T02:27:57.926Z,57.29
2022-11-16T02:30:33.280Z,57.10
2022-11-16T02:33:12.717Z,57.29
2022-11-16T02:35:48.466Z,57.30
2022-11-16T02:38:22.850Z,57.16
2022-11-16T02:40:59.064Z,57.09
2022-11-16T02:43:36.637Z,57.14
2022-11-16T02:46:13.778Z,57.13
2022-11-16T02:48:47.605Z,57.13
2022-11-16T02:51:20.664Z,57.36
2022-11-16T02:54:03.922Z,57.23
2022-11-16T02:56:49.842Z,57.30
2022-11-16T02:59:22.752Z,57.34
2022-11-16T03:02:02.172Z,57.29
2022-11-16T03:04:41.205Z,57.19
2022-11-16T03:07:16.591Z,57.44
2022-11-16T03:09:53.023Z,57.38
2022-11-16T03:12:30.117Z,57.09
2022-11-16T03:15:05.919Z,57.11
2022-11-16T03:17:41.848Z,57.38
2022-11-16T03:20:20.713Z,57.66
2022-11-16T03:22:55.365Z,57.52
2022-11-16T03:25:30.372Z,57.50
2022-11-16T03:28:08.605Z,57.62
2022-11-16T03:30:44.015Z,57.65
2022-11-16T03:33:19.609Z,57.69
2022-11-16T03:35:56.580Z,57.61
2022-11-16T03:38:30.461Z,57.68
2022-11-16T03:41:05.109Z,57.57
2022-11-16T03:43:38.114Z,57.75
2022-11-16T03:46:11.743Z,57.88
2022-11-16T03:48:45.197Z,57.86
2022-11-16T03:51:18.728Z,57.88
2022-11-16T03:53:51.920Z,57.82
2022-11-16T03:56:24.578Z,57.94
2022-11-16T03:58:56.825Z,58.01
2022-11-16T04:01:29.583Z,57.92
2022-11-16T04:04:03.836Z,57.91
2022-11-16T04:06:55.485Z,58.00
2022-11-16T04:09:47.330Z,58.11
2022-11-16T04:12:39.399Z,58.00
2022-11-16T04:15:31.743Z,58.01
2022-11-16T04:18:23.726Z,58.13
2022-11-16T04:21:15.757Z,58.18
2022-11-16T04:24:10.311Z,58.24
2022-11-16T04:27:02.796Z,58.34
2022-11-16T04:29:40.676Z,58.39
2022-11-16T04:32:32.630Z,58.48
2022-11-16T04:35:23.182Z,58.53
2022-11-16T04:37:57.137Z,58.65
2022-11-16T04:40:30.449Z,58.76
2022-11-16T04:43:04.477Z,58.60
2022-11-16T04:45:56.468Z,58.61
2022-11-16T04:48:29.825Z,58.57
2022-11-16T04:51:04.088Z,58.64
2022-11-16T04:53:37.093Z,58.47
2022-11-16T04:56:12.569Z,58.63
2022-11-16T04:58:45.897Z,58.62
2022-11-16T05:01:39.448Z,58.64
2022-11-16T05:04:12.499Z,58.61
2022-11-16T05:06:45.808Z,58.57
2022-11-16T05:09:19.048Z,58.53
2022-11-16T05:11:51.815Z,58.56
2022-11-16T05:14:25.269Z,58.58
2022-11-16T05:16:58.982Z,58.68
2022-11-16T05:19:50.969Z,58.76
2022-11-16T05:22:25.259Z,58.86
2022-11-16T05:24:58.042Z,59.02
2022-11-16T05:27:31.636Z,59.02
2022-11-16T05:30:06.304Z,59.15
2022-11-16T05:32:39.676Z,59.14
2022-11-16T05:35:12.999Z,59.00
2022-11-16T05:37:45.682Z,58.88
2022-11-16T05:40:20.315Z,58.95
2022-11-16T05:42:53.480Z,58.88
2022-11-16T05:45:26.668Z,58.89
2022-11-16T05:47:59.230Z,58.94
2022-11-16T05:50:32.616Z,59.06
2022-11-16T05:53:05.297Z,58.99
2022-11-16T05:55:39.801Z,59.08
2022-11-16T05:58:12.296Z,59.01
2022-11-16T06:00:46.968Z,58.96
2022-11-16T06:03:20.074Z,59.11
2022-11-16T06:05:53.610Z,59.05
2022-11-16T06:08:27.913Z,59.11
2022-11-16T06:11:04.676Z,59.13
2022-11-16T06:13:38.409Z,59.15
2022-11-16T06:16:12.832Z,59.29
2022-11-16T06:18:47.825Z,59.36
2022-11-16T06:21:21.120Z,59.31
2022-11-16T06:23:54.274Z,59.23
2022-11-16T06:26:27.271Z,59.20
2022-11-16T06:28:59.923Z,59.27
2022-11-16T06:31:36.105Z,59.33
2022-11-16T06:34:08.896Z,59.47
2022-11-16T06:36:41.338Z,59.56
2022-11-16T06:39:17.134Z,59.42
2022-11-16T06:41:50.075Z,59.33
2022-11-16T06:44:23.387Z,59.24
2022-11-16T06:46:56.676Z,59.34
2022-11-16T06:49:29.610Z,59.61
2022-11-16T06:52:02.409Z,59.61
2022-11-16T06:54:35.396Z,59.43
2022-11-16T06:57:07.737Z,59.33
2022-11-16T06:59:40.645Z,59.43
2022-11-16T07:02:13.984Z,59.33
2022-11-16T07:04:47.697Z,59.43
2022-11-16T07:07:20.128Z,59.52
2022-11-16T07:09:53.578Z,59.36
2022-11-16T07:12:27.384Z,59.32
2022-11-16T07:14:59.642Z,59.38
2022-11-16T07:17:33.676Z,59.51
2022-11-16T07:20:09.584Z,59.50
2022-11-16T07:22:42.520Z,59.52
2022-11-16T07:25:18.101Z,59.54
2022-11-16T07:27:51.944Z,59.49
2022-11-16T07:30:24.757Z,59.41
2022-11-16T07:33:02.542Z,59.42
2022-11-16T07:35:34.684Z,59.40
2022-11-16T07:38:06.534Z,59.50
2022-11-16T07:40:40.358Z,59.42
2022-11-16T07:43:12.975Z,59.42
2022-11-16T07:45:45.203Z,59.60
2022-11-16T07:48:18.373Z,59.51
2022-11-16T07:50:50.811Z,59.42
2022-11-16T07:53:24.880Z,59.45
2022-11-16T07:56:00.733Z,59.55
2022-11-16T07:58:34.989Z,59.49
2022-11-16T08:01:08.522Z,59.47
2022-11-16T08:03:42.039Z,59.63
2022-11-16T08:06:17.696Z,59.79
2022-11-16T08:08:55.129Z,59.73
2022-11-16T08:11:30.108Z,59.55
2022-11-16T08:14:03.364Z,59.69
2022-11-16T08:16:36.342Z,59.78
2022-11-16T08:19:12.105Z,59.89
2022-11-16T08:21:46.808Z,59.88
2022-11-16T08:24:20.003Z,59.81
2022-11-16T08:26:51.957Z,59.64
2022-11-16T08:29:24.162Z,59.62
2022-11-16T08:31:56.799Z,59.50
2022-11-16T08:34:29.557Z,59.84
2022-11-16T08:37:02.644Z,59.83
2022-11-16T08:39:35.656Z,59.82
2022-11-16T08:42:09.121Z,59.97
2022-11-16T08:44:41.838Z,59.95
2022-11-16T08:47:13.922Z,59.87
2022-11-16T08:49:49.579Z,59.87
2022-11-16T08:52:23.617Z,59.86
2022-11-16T08:54:55.420Z,59.90
2022-11-16T08:57:27.823Z,59.95
2022-11-16T09:00:01.617Z,59.97
2022-11-16T09:02:33.829Z,60.09
2022-11-16T09:05:12.041Z,59.96
2022-11-16T09:15:10.390Z,60.12
2022-11-16T09:17:43.182Z,60.25
2022-11-16T09:20:16.237Z,60.43
2022-11-16T09:22:48.020Z,60.33
2022-11-16T09:25:21.761Z,60.20
2022-11-16T09:27:54.293Z,60.17
2022-11-16T09:30:27.429Z,60.21
2022-11-16T09:33:01.416Z,60.21
2022-11-16T09:35:34.787Z,60.33
2022-11-16T09:38:11.808Z,60.15
2022-11-16T09:40:48.160Z,60.23
2022-11-16T09:43:32.138Z,59.93
2022-11-16T09:46:17.817Z,59.99
2022-11-16T09:48:51.285Z,60.02
2022-11-16T09:51:24.770Z,60.14
2022-11-16T09:53:59.311Z,60.09
2022-11-16T09:56:33.397Z,60.17
2022-11-16T09:59:17.970Z,59.79
2022-11-16T10:01:54.355Z,59.79
2022-11-16T10:04:37.152Z,59.85
2022-11-16T10:07:16.936Z,59.93
2022-11-16T10:09:49.845Z,59.94
2022-11-16T10:12:25.237Z,59.95
2022-11-16T10:15:12.809Z,59.95
2022-11-16T10:18:02.177Z,59.97
2022-11-16T10:20:57.055Z,59.89
2022-11-16T10:23:40.194Z,59.97
2022-11-16T10:26:21.888Z,59.96
2022-11-16T10:29:16.226Z,59.81
2022-11-16T10:32:14.127Z,59.93
2022-11-16T10:34:53.821Z,60.21
2022-11-16T10:37:34.054Z,60.10
2022-11-16T10:40:20.435Z,60.29
2022-11-16T10:43:05.328Z,60.24
2022-11-16T10:45:44.436Z,60.41
2022-11-16T10:48:21.974Z,60.31
2022-11-16T10:50:55.948Z,60.50
2022-11-16T10:53:35.452Z,60.35
2022-11-16T10:56:20.359Z,60.31
2022-11-16T10:58:58.547Z,60.47
2022-11-16T11:01:37.586Z,60.54
2022-11-16T11:04:22.062Z,60.59
2022-11-16T11:06:56.039Z,60.54
2022-11-16T11:09:33.872Z,60.66
2022-11-16T11:12:35.730Z,60.57
2022-11-16T11:15:26.619Z,60.82
2022-11-16T11:18:20.788Z,60.85
2022-11-16T11:21:06.612Z,60.58
2022-11-16T11:23:45.103Z,60.76
2022-11-16T11:26:36.448Z,60.71
2022-11-16T11:29:23.144Z,60.83
2022-11-16T11:31:58.884Z,60.90
2022-11-16T11:34:33.577Z,61.01
2022-11-16T11:37:08.561Z,61.17
2022-11-16T11:39:40.544Z,61.36
2022-11-16T11:42:26.904Z,61.37
2022-11-16T11:45:01.132Z,61.37
2022-11-16T11:47:58.101Z,61.42
2022-11-16T11:50:42.622Z,61.17
2022-11-16T11:53:25.288Z,61.27
2022-11-16T11:55:59.045Z,60.73
2022-11-16T11:58:34.284Z,60.63
2022-11-16T12:01:25.871Z,60.37
2022-11-16T12:04:31.400Z,60.43
2022-11-16T12:07:07.392Z,60.56
2022-11-16T12:09:42.580Z,60.73
2022-11-16T12:12:27.065Z,60.71
2022-11-16T12:15:16.992Z,60.73
2022-11-16T12:17:55.947Z,61.19
2022-11-16T12:20:43.876Z,61.30
2022-11-16T12:23:42.317Z,61.03
2022-11-16T12:26:21.611Z,61.10
2022-11-16T12:29:03.750Z,61.12
2022-11-16T12:31:58.545Z,61.06
2022-11-16T12:34:40.184Z,61.04
2022-11-16T12:37:17.171Z,60.96
2022-11-16T12:39:57.741Z,61.11
2022-11-16T12:42:41.983Z,61.07
2022-11-16T12:45:34.922Z,61.36
2022-11-16T12:48:30.278Z,61.55
2022-11-16T12:51:09.433Z,61.50
2022-11-16T12:54:02.992Z,61.52
2022-11-16T12:56:48.632Z,61.48
2022-11-16T12:59:43.452Z,61.54
2022-11-16T13:02:29.745Z,61.55
2022-11-16T13:05:05.476Z,61.47
2022-11-16T13:07:42.195Z,61.35
2022-11-16T13:10:20.000Z,61.39
2022-11-16T13:13:09.095Z,61.44
2022-11-16T13:15:48.138Z,61.40
2022-11-16T13:18:23.985Z,60.94
2022-11-16T13:21:00.010Z,61.02
2022-11-16T13:23:42.978Z,61.37
2022-11-16T13:26:21.996Z,61.32
2022-11-16T13:29:00.694Z,61.41
2022-11-16T13:31:36.810Z,61.46
2022-11-16T13:34:14.040Z,61.45
2022-11-16T13:36:49.185Z,64.29
2022-11-16T13:39:23.310Z,68.96
2022-11-16T13:42:09.195Z,64.35
2022-11-16T13:44:41.910Z,63.94
2022-11-16T13:47:24.766Z,63.70
2022-11-16T13:49:58.843Z,63.45
2022-11-16T13:53:23.414Z,63.56
2022-11-16T13:55:39.977Z,63.30
2022-11-16T13:58:22.090Z,63.04
2022-11-16T14:01:04.819Z,62.80
2022-11-16T14:03:41.979Z,62.83
2022-11-16T14:06:50.449Z,62.83
2022-11-16T14:09:50.498Z,62.75
2022-11-16T14:12:58.926Z,62.06
2022-11-16T14:15:36.553Z,61.46
2022-11-16T14:18:36.315Z,61.56
2022-11-16T14:21:17.397Z,62.04
2022-11-16T14:24:13.426Z,62.07
2022-11-16T14:26:51.382Z,61.94
2022-11-16T14:30:02.502Z,61.95
2022-11-16T14:32:42.763Z,61.47
2022-11-16T14:35:31.710Z,61.72
2022-11-16T14:38:06.219Z,61.54
2022-11-16T14:40:46.950Z,61.73
2022-11-16T14:43:20.996Z,61.64
2022-11-16T14:45:58.468Z,61.15
2022-11-16T14:48:33.036Z,61.63
2022-11-16T14:51:08.970Z,61.69
2022-11-16T14:53:45.838Z,61.54
2022-11-16T14:56:20.035Z,61.55
2022-11-16T14:58:58.209Z,61.65
2022-11-16T15:01:32.326Z,61.85
2022-11-16T15:04:09.754Z,61.50
2022-11-16T15:06:46.301Z,61.39
2022-11-16T15:09:26.026Z,61.50
2022-11-16T15:12:18.649Z,61.38
2022-11-16T15:14:53.899Z,61.20
2022-11-16T15:17:31.951Z,61.43
2022-11-16T15:20:16.845Z,61.46
2022-11-16T15:22:53.277Z,61.46
2022-11-16T15:25:31.003Z,61.36
2022-11-16T15:28:06.076Z,61.06
2022-11-16T15:30:40.552Z,61.09
2022-11-16T15:33:16.862Z,61.16
2022-11-16T15:35:56.107Z,61.26
2022-11-16T15:38:31.290Z,61.23
2022-11-16T15:41:06.501Z,61.21
2022-11-16T15:44:01.397Z,61.27
2022-11-16T15:46:35.673Z,61.21
2022-11-16T15:49:13.946Z,61.08
2022-11-16T15:51:49.287Z,61.01
2022-11-16T15:54:27.452Z,60.96
2022-11-16T15:57:10.649Z,61.15
2022-11-16T15:59:42.840Z,61.06
2022-11-16T16:02:21.005Z,61.26
2022-11-16T16:04:55.567Z,61.07
2022-11-16T16:07:41.771Z,61.02
2022-11-16T16:10:27.522Z,61.06
2022-11-16T16:13:01.435Z,61.10
2022-11-16T16:15:36.861Z,60.99
2022-11-16T16:18:39.447Z,61.13
2022-11-16T16:21:11.555Z,61.12
2022-11-16T16:23:50.231Z,61.04
2022-11-16T16:26:28.063Z,60.98
2022-11-16T16:29:01.606Z,61.09
2022-11-16T16:31:34.318Z,61.07
2022-11-16T16:34:15.209Z,61.17
2022-11-16T16:36:48.109Z,61.07
2022-11-16T16:39:20.169Z,60.86
2022-11-16T16:41:52.826Z,60.76
2022-11-16T16:44:25.484Z,60.71
2022-11-16T16:46:57.402Z,60.80
2022-11-16T16:49:29.338Z,60.86
2022-11-16T16:52:02.581Z,60.90
2022-11-16T16:54:35.164Z,60.82
2022-11-16T16:57:07.054Z,60.83
2022-11-16T16:59:39.405Z,60.77
2022-11-16T17:02:12.637Z,60.79
2022-11-16T17:04:46.859Z,60.59
2022-11-16T17:07:19.302Z,60.61
2022-11-16T17:09:51.649Z,60.73
2022-11-16T17:12:23.557Z,60.78
2022-11-16T17:14:55.786Z,60.51
2022-11-16T17:17:27.786Z,60.57
2022-11-16T17:20:00.041Z,60.52
2022-11-16T17:22:33.608Z,60.45
2022-11-16T17:25:05.657Z,60.45
2022-11-16T17:27:38.056Z,60.30
2022-11-16T17:30:12.745Z,60.25
2022-11-16T17:32:44.685Z,60.11
2022-11-16T17:35:16.899Z,60.08
2022-11-16T17:37:48.710Z,60.02
2022-11-16T17:40:21.588Z,60.30
2022-11-16T17:42:53.502Z,60.25
2022-11-16T17:45:25.422Z,60.07
2022-11-16T17:47:58.412Z,59.99
2022-11-16T17:50:30.164Z,59.86
2022-11-16T17:53:02.125Z,59.97
2022-11-16T17:55:33.994Z,60.07
2022-11-16T17:58:07.131Z,60.29
2022-11-16T18:00:38.889Z,59.85
2022-11-16T18:03:10.740Z,59.75
2022-11-16T18:05:42.561Z,60.00
2022-11-16T18:08:14.526Z,60.36
2022-11-16T18:10:47.047Z,60.32
2022-11-16T18:13:18.902Z,60.36
2022-11-16T18:15:50.884Z,60.00
2022-11-16T18:18:22.715Z,59.91
2022-11-16T18:20:54.608Z,60.02
2022-11-16T18:23:27.348Z,60.08
2022-11-16T18:25:59.196Z,59.78
2022-11-16T18:28:31.296Z,59.88
2022-11-16T18:31:07.349Z,59.81
2022-11-16T18:33:39.936Z,59.70
2022-11-16T18:36:12.665Z,59.66
2022-11-16T18:38:44.494Z,59.81
2022-11-16T18:41:21.157Z,59.89
2022-11-16T18:43:54.722Z,59.58
2022-11-16T18:46:28.031Z,59.46
2022-11-16T18:49:00.779Z,59.53
2022-11-16T18:51:33.264Z,59.64
2022-11-16T18:54:05.570Z,59.52
2022-11-16T18:56:37.387Z,59.49
2022-11-16T18:59:09.294Z,59.23
2022-11-16T19:01:41.073Z,59.38
2022-11-16T19:04:13.287Z,59.41
2022-11-16T19:06:45.137Z,59.35
2022-11-16T19:09:17.018Z,59.21
2022-11-16T19:11:50.854Z,58.88
2022-11-16T19:14:22.888Z,58.89
2022-11-16T19:16:57.283Z,58.95
2022-11-16T19:19:29.920Z,59.09
2022-11-16T19:22:02.872Z,58.75
2022-11-16T19:24:34.864Z,59.10
2022-11-16T19:27:06.852Z,59.16
2022-11-16T19:29:38.835Z,58.94
2022-11-16T19:32:10.742Z,58.87
2022-11-16T19:34:42.550Z,58.60
2022-11-16T19:37:15.158Z,58.83
2022-11-16T19:39:47.113Z,59.02
2022-11-16T19:42:18.877Z,59.10
2022-11-16T19:44:50.639Z,59.05
2022-11-16T19:47:26.203Z,59.11
2022-11-16T19:49:58.156Z,58.88
2022-11-16T19:52:30.263Z,58.73
2022-11-16T19:55:02.093Z,59.03
2022-11-16T19:57:34.111Z,59.36
2022-11-16T20:00:07.709Z,59.30
2022-11-16T20:02:39.846Z,59.20
2022-11-16T20:05:13.721Z,59.34
2022-11-16T20:07:45.525Z,58.77
2022-11-16T20:10:17.727Z,58.78
2022-11-16T20:12:49.874Z,58.91
2022-11-16T20:15:25.379Z,59.18
2022-11-16T20:17:57.278Z,59.16
2022-11-16T20:20:29.126Z,59.15
2022-11-16T20:23:02.763Z,59.09
2022-11-16T20:25:35.451Z,59.02
2022-11-16T20:28:07.718Z,58.82
2022-11-16T20:30:39.832Z,58.66
2022-11-16T20:33:13.900Z,58.69
2022-11-16T20:35:45.761Z,58.63
2022-11-16T20:38:17.666Z,58.51
2022-11-16T20:40:50.003Z,58.60
2022-11-16T20:43:24.902Z,58.72
2022-11-16T20:45:57.190Z,58.65
2022-11-16T20:48:29.495Z,58.62
2022-11-16T20:51:03.397Z,58.48
2022-11-16T20:53:35.616Z,58.62
2022-11-16T20:56:09.077Z,58.50
2022-11-16T20:58:41.423Z,58.46
2022-11-16T21:01:15.756Z,58.54
2022-11-16T21:03:47.952Z,58.59
2022-11-16T21:06:19.901Z,58.37
2022-11-16T21:08:52.126Z,58.20
2022-11-16T21:11:26.063Z,58.45
2022-11-16T21:14:15.571Z,58.36
2022-11-16T21:16:47.549Z,58.37
2022-11-16T21:19:19.722Z,58.72
2022-11-16T21:21:51.626Z,58.69
2022-11-16T21:24:24.843Z,58.67
2022-11-16T21:26:56.794Z,58.68
2022-11-16T21:29:30.730Z,60.36
2022-11-16T21:32:03.010Z,59.91
2022-11-16T21:34:39.965Z,58.81
2022-11-16T21:37:12.778Z,58.70
2022-11-16T21:39:44.574Z,58.57
2022-11-16T21:42:16.559Z,58.63
2022-11-16T21:44:48.646Z,58.50
2022-11-16T21:47:21.219Z,58.66
2022-11-16T21:50:24.830Z,58.51
2022-11-16T21:52:45.349Z,58.75
2022-11-16T21:55:19.600Z,58.61
2022-11-16T21:57:52.538Z,58.66
2022-11-16T22:00:24.994Z,58.65
2022-11-16T22:02:57.018Z,58.40
2022-11-16T22:05:46.346Z,58.52
2022-11-16T22:08:18.630Z,58.93
2022-11-16T22:10:54.566Z,59.12
2022-11-16T22:13:28.661Z,58.96
2022-11-16T22:16:04.023Z,58.85
2022-11-16T22:18:36.494Z,58.77
2022-11-16T22:21:09.041Z,59.00
2022-11-16T22:23:41.710Z,58.94
2022-11-16T22:26:14.913Z,58.96
2022-11-16T22:28:46.925Z,58.65
2022-11-16T22:31:19.823Z,58.79
2022-11-16T22:33:54.654Z,59.06
2022-11-16T22:36:26.716Z,59.07
2022-11-16T22:38:58.515Z,58.86
2022-11-16T22:41:30.505Z,58.97
2022-11-16T22:44:02.729Z,58.94
2022-11-16T22:46:34.651Z,58.93
2022-11-16T22:49:06.984Z,58.84
2022-11-16T22:51:42.469Z,58.71
2022-11-16T22:54:15.643Z,58.82
2022-11-16T22:56:48.243Z,58.88
2022-11-16T22:59:20.052Z,59.10
2022-11-16T23:01:51.949Z,58.80
2022-11-16T23:04:23.924Z,58.86
2022-11-16T23:06:55.807Z,59.01
2022-11-16T23:09:27.647Z,59.07
2022-11-16T23:12:17.052Z,59.10
2022-11-16T23:15:06.427Z,59.06
2022-11-16T23:17:38.855Z,58.75
2022-11-16T23:20:30.528Z,58.70
2022-11-16T23:23:20.798Z,58.81
2022-11-16T23:26:11.905Z,58.99
2022-11-16T23:28:44.400Z,59.01
2022-11-16T23:31:17.057Z,59.12
2022-11-16T23:33:50.242Z,59.08
2022-11-16T23:36:22.973Z,59.11
2022-11-16T23:38:55.734Z,59.09
2022-11-16T23:41:46.253Z,59.02
2022-11-16T23:44:18.384Z,58.97
2022-11-16T23:46:51.006Z,58.94
2022-11-16T23:49:23.966Z,58.76
2022-11-16T23:51:57.743Z,58.79
2022-11-16T23:54:31.151Z,58.61
2022-11-16T23:57:04.726Z,58.57
2022-11-16T23:59:37.576Z,58.54
